History Data

Date (GMT-7:00) CPM ACPM uSv/h Latitude Longitude Altitude CO CO2 TVOC HCHO Air Pressure Temperature Humidity Type
2026-05-20 20:36:33 15 16.40 0.075000 41.649648 41.62752893 0 0 0 0 0 0 0 0 STD5.60
2026-05-20 20:31:30 13 17.90 0.065000 41.649648 41.62752893 0 0 0 0 0 0 0 0 STD5.60
2026-05-20 20:26:25 24 18.40 0.120000 41.649648 41.62752893 0 0 0 0 0 0 0 0 STD5.60
2026-05-20 20:21:24 22 17.50 0.110000 41.649648 41.62752893 0 0 0 0 0 0 0 0 STD5.60
2026-05-20 20:16:21 18 18.10 0.090000 41.649648 41.62752893 0 0 0 0 0 0 0 0 STD5.60
2026-05-20 20:11:19 20 17.40 0.100000 41.649648 41.62752893 0 0 0 0 0 0 0 0 STD5.60
2026-05-20 20:06:17 19 16.80 0.095000 41.649648 41.62752893 0 0 0 0 0 0 0 0 STD5.60
2026-05-20 20:01:15 20 16.10 0.100000 41.649648 41.62752893 0 0 0 0 0 0 0 0 STD5.60
2026-05-20 19:56:13 20 17.40 0.100000 41.649648 41.62752893 0 0 0 0 0 0 0 0 STD5.60
2026-05-20 19:51:10 23 18.60 0.115000 41.649648 41.62752893 0 0 0 0 0 0 0 0 STD5.60
2026-05-20 19:46:08 18 18.00 0.090000 41.649648 41.62752893 0 0 0 0 0 0 0 0 STD5.60
2026-05-20 19:41:06 13 19.80 0.065000 41.649648 41.62752893 0 0 0 0 0 0 0 0 STD5.60
2026-05-20 19:36:04 30 19.20 0.150000 41.649648 41.62752893 0 0 0 0 0 0 0 0 STD5.60
2026-05-20 19:31:02 19 16.80 0.095000 41.649648 41.62752893 0 0 0 0 0 0 0 0 STD5.60
2026-05-20 19:25:58 10 17.30 0.050000 41.649648 41.62752893 0 0 0 0 0 0 0 0 STD5.60
2026-05-20 19:20:56 17 17.50 0.085000 41.649648 41.62752893 0 0 0 0 0 0 0 0 STD5.60
2026-05-20 19:15:54 20 18.30 0.100000 41.649648 41.62752893 0 0 0 0 0 0 0 0 STD5.60
2026-05-20 19:10:52 17 18.50 0.085000 41.649648 41.62752893 0 0 0 0 0 0 0 0 STD5.60
2026-05-20 19:05:49 21 18.30 0.105000 41.649648 41.62752893 0 0 0 0 0 0 0 0 STD5.60
2026-05-20 19:00:48 11 17.80 0.055000 41.649648 41.62752893 0 0 0 0 0 0 0 0 STD5.60
2026-05-20 18:55:46 12 17.20 0.060000 41.649648 41.62752893 0 0 0 0 0 0 0 0 STD5.60
2026-05-20 18:50:44 20 19.80 0.100000 41.649648 41.62752893 0 0 0 0 0 0 0 0 STD5.60
2026-05-20 18:45:46 15 19.80 0.075000 41.649648 41.62752893 0 0 0 0 0 0 0 0 STD5.60
2026-05-20 18:40:40 23 18.00 0.115000 41.649648 41.62752893 0 0 0 0 0 0 0 0 STD5.60
2026-05-20 18:35:38 15 18.30 0.075000 41.649648 41.62752893 0 0 0 0 0 0 0 0 STD5.60
2026-05-20 18:30:36 17 19.70 0.085000 41.649648 41.62752893 0 0 0 0 0 0 0 0 STD5.60
2026-05-20 18:25:32 20 19.10 0.100000 41.649648 41.62752893 0 0 0 0 0 0 0 0 STD5.60
2026-05-20 18:20:30 18 17.70 0.090000 41.649648 41.62752893 0 0 0 0 0 0 0 0 STD5.60
2026-05-20 18:15:29 16 17.90 0.080000 41.649648 41.62752893 0 0 0 0 0 0 0 0 STD5.60
2026-05-20 18:10:26 18 17.10 0.090000 41.649648 41.62752893 0 0 0 0 0 0 0 0 STD5.60
2026-05-20 18:05:24 17 17.30 0.085000 41.649648 41.62752893 0 0 0 0 0 0 0 0 STD5.60
2026-05-20 18:00:22 19 18.20 0.095000 41.649648 41.62752893 0 0 0 0 0 0 0 0 STD5.60
2026-05-20 17:55:20 14 19.40 0.070000 41.649648 41.62752893 0 0 0 0 0 0 0 0 STD5.60
2026-05-20 17:50:18 23 19.40 0.115000 41.649648 41.62752893 0 0 0 0 0 0 0 0 STD5.60
2026-05-20 17:45:15 18 18.20 0.090000 41.649648 41.62752893 0 0 0 0 0 0 0 0 STD5.60
2026-05-20 17:40:13 19 16.60 0.095000 41.649648 41.62752893 0 0 0 0 0 0 0 0 STD5.60
2026-05-20 17:35:11 15 16.20 0.075000 41.649648 41.62752893 0 0 0 0 0 0 0 0 STD5.60
2026-05-20 17:30:09 21 18.80 0.105000 41.649648 41.62752893 0 0 0 0 0 0 0 0 STD5.60
2026-05-20 17:25:05 25 17.40 0.125000 41.649648 41.62752893 0 0 0 0 0 0 0 0 STD5.60
2026-05-20 17:20:03 15 16.60 0.075000 41.649648 41.62752893 0 0 0 0 0 0 0 0 STD5.60
2026-05-20 17:15:00 20 19.30 0.100000 41.649648 41.62752893 0 0 0 0 0 0 0 0 STD5.60
2026-05-20 17:09:58 23 20.60 0.115000 41.649648 41.62752893 0 0 0 0 0 0 0 0 STD5.60
2026-05-20 17:04:56 22 20.10 0.110000 41.649648 41.62752893 0 0 0 0 0 0 0 0 STD5.60
2026-05-20 16:59:55 24 20.60 0.120000 41.649648 41.62752893 0 0 0 0 0 0 0 0 STD5.60
2026-05-20 16:54:53 25 18.80 0.125000 41.649648 41.62752893 0 0 0 0 0 0 0 0 STD5.60
2026-05-20 16:49:51 18 17.00 0.090000 41.649648 41.62752893 0 0 0 0 0 0 0 0 STD5.60
2026-05-20 16:44:49 12 17.60 0.060000 41.649648 41.62752893 0 0 0 0 0 0 0 0 STD5.60
2026-05-20 16:39:47 15 16.30 0.075000 41.649648 41.62752893 0 0 0 0 0 0 0 0 STD5.60
2026-05-20 16:34:44 15 16.90 0.075000 41.649648 41.62752893 0 0 0 0 0 0 0 0 STD5.60
2026-05-20 16:29:42 13 17.50 0.065000 41.649648 41.62752893 0 0 0 0 0 0 0 0 STD5.60
2026-05-20 16:24:38 16 16.50 0.080000 41.649648 41.62752893 0 0 0 0 0 0 0 0 STD5.60
2026-05-20 16:19:36 13 17.20 0.065000 41.649648 41.62752893 0 0 0 0 0 0 0 0 STD5.60
2026-05-20 16:14:34 17 19.60 0.085000 41.649648 41.62752893 0 0 0 0 0 0 0 0 STD5.60
2026-05-20 16:09:33 19 19.30 0.095000 41.649648 41.62752893 0 0 0 0 0 0 0 0 STD5.60
2026-05-20 16:04:30 19 17.50 0.095000 41.649648 41.62752893 0 0 0 0 0 0 0 0 STD5.60
2026-05-20 15:59:29 12 18.50 0.060000 41.649648 41.62752893 0 0 0 0 0 0 0 0 STD5.60
2026-05-20 15:54:26 13 16.90 0.065000 41.649648 41.62752893 0 0 0 0 0 0 0 0 STD5.60
2026-05-20 15:49:24 18 16.40 0.090000 41.649648 41.62752893 0 0 0 0 0 0 0 0 STD5.60
2026-05-20 15:44:22 13 17.80 0.065000 41.649648 41.62752893 0 0 0 0 0 0 0 0 STD5.60
2026-05-20 15:39:20 16 18.70 0.080000 41.649648 41.62752893 0 0 0 0 0 0 0 0 STD5.60
2026-05-20 15:34:18 17 18.00 0.085000 41.649648 41.62752893 0 0 0 0 0 0 0 0 STD5.60
2026-05-20 15:29:16 14 15.50 0.070000 41.649648 41.62752893 0 0 0 0 0 0 0 0 STD5.60
2026-05-20 15:24:12 10 16.20 0.050000 41.649648 41.62752893 0 0 0 0 0 0 0 0 STD5.60
2026-05-20 15:19:10 17 16.90 0.085000 41.649648 41.62752893 0 0 0 0 0 0 0 0 STD5.60
2026-05-20 15:14:08 16 18.00 0.080000 41.649648 41.62752893 0 0 0 0 0 0 0 0 STD5.60
2026-05-20 15:09:06 20 20.20 0.100000 41.649648 41.62752893 0 0 0 0 0 0 0 0 STD5.60
2026-05-20 15:04:04 22 19.90 0.110000 41.649648 41.62752893 0 0 0 0 0 0 0 0 STD5.60
2026-05-20 14:59:02 12 17.80 0.060000 41.649648 41.62752893 0 0 0 0 0 0 0 0 STD5.60
2026-05-20 14:53:59 15 18.50 0.075000 41.649648 41.62752893 0 0 0 0 0 0 0 0 STD5.60
2026-05-20 14:48:57 17 19.90 0.085000 41.649648 41.62752893 0 0 0 0 0 0 0 0 STD5.60
2026-05-20 14:43:55 16 19.80 0.080000 41.649648 41.62752893 0 0 0 0 0 0 0 0 STD5.60
2026-05-20 14:38:53 17 18.00 0.085000 41.649648 41.62752893 0 0 0 0 0 0 0 0 STD5.60
2026-05-20 14:33:51 17 18.60 0.085000 41.649648 41.62752893 0 0 0 0 0 0 0 0 STD5.60
2026-05-20 14:28:49 20 20.90 0.100000 41.649648 41.62752893 0 0 0 0 0 0 0 0 STD5.60
2026-05-20 14:23:45 25 19.60 0.125000 41.649648 41.62752893 0 0 0 0 0 0 0 0 STD5.60
2026-05-20 14:18:43 15 19.00 0.075000 41.649648 41.62752893 0 0 0 0 0 0 0 0 STD5.60
2026-05-20 14:13:41 21 17.90 0.105000 41.649648 41.62752893 0 0 0 0 0 0 0 0 STD5.60
2026-05-20 14:08:39 14 16.40 0.070000 41.649648 41.62752893 0 0 0 0 0 0 0 0 STD5.60
2026-05-20 14:03:37 18 17.70 0.090000 41.649648 41.62752893 0 0 0 0 0 0 0 0 STD5.60
2026-05-20 13:58:35 16 19.50 0.080000 41.649648 41.62752893 0 0 0 0 0 0 0 0 STD5.60
2026-05-20 13:53:33 18 18.90 0.090000 41.649648 41.62752893 0 0 0 0 0 0 0 0 STD5.60
2026-05-20 13:48:31 26 16.70 0.130000 41.649648 41.62752893 0 0 0 0 0 0 0 0 STD5.60
2026-05-20 13:43:29 16 18.60 0.080000 41.649648 41.62752893 0 0 0 0 0 0 0 0 STD5.60
2026-05-20 13:38:27 17 19.50 0.085000 41.649648 41.62752893 0 0 0 0 0 0 0 0 STD5.60
2026-05-20 13:33:25 15 17.50 0.075000 41.649648 41.62752893 0 0 0 0 0 0 0 0 STD5.60
2026-05-20 13:28:23 12 16.90 0.060000 41.649648 41.62752893 0 0 0 0 0 0 0 0 STD5.60
2026-05-20 13:23:19 16 17.50 0.080000 41.649648 41.62752893 0 0 0 0 0 0 0 0 STD5.60
2026-05-20 13:18:17 16 18.30 0.080000 41.649648 41.62752893 0 0 0 0 0 0 0 0 STD5.60
2026-05-20 13:13:15 18 17.70 0.090000 41.649648 41.62752893 0 0 0 0 0 0 0 0 STD5.60
2026-05-20 13:08:13 20 18.60 0.100000 41.649648 41.62752893 0 0 0 0 0 0 0 0 STD5.60
2026-05-20 13:03:11 16 17.50 0.080000 41.649648 41.62752893 0 0 0 0 0 0 0 0 STD5.60
2026-05-20 12:58:09 17 19.20 0.085000 41.649648 41.62752893 0 0 0 0 0 0 0 0 STD5.60
2026-05-20 12:53:07 31 20.90 0.155000 41.649648 41.62752893 0 0 0 0 0 0 0 0 STD5.60
2026-05-20 12:48:04 26 17.30 0.130000 41.649648 41.62752893 0 0 0 0 0 0 0 0 STD5.60
2026-05-20 12:43:03 15 18.00 0.075000 41.649648 41.62752893 0 0 0 0 0 0 0 0 STD5.60
2026-05-20 12:38:00 20 19.80 0.100000 41.649648 41.62752893 0 0 0 0 0 0 0 0 STD5.60
2026-05-20 12:32:58 21 19.50 0.105000 41.649648 41.62752893 0 0 0 0 0 0 0 0 STD5.60
2026-05-20 12:27:57 14 17.00 0.070000 41.649648 41.62752893 0 0 0 0 0 0 0 0 STD5.60
2026-05-20 12:22:53 21 18.30 0.105000 41.649648 41.62752893 0 0 0 0 0 0 0 0 STD5.60
2026-05-20 12:17:51 19 20.00 0.095000 41.649648 41.62752893 0 0 0 0 0 0 0 0 STD5.60
2026-05-20 12:12:48 19 18.60 0.095000 41.649648 41.62752893 0 0 0 0 0 0 0 0 STD5.60
2026-05-20 12:07:46 21 19.80 0.105000 41.649648 41.62752893 0 0 0 0 0 0 0 0 STD5.60
2026-05-20 12:02:44 19 18.50 0.095000 41.649648 41.62752893 0 0 0 0 0 0 0 0 STD5.60
2026-05-20 11:57:43 16 18.00 0.080000 41.649648 41.62752893 0 0 0 0 0 0 0 0 STD5.60
2026-05-20 11:52:40 14 20.50 0.070000 41.649648 41.62752893 0 0 0 0 0 0 0 0 STD5.60
2026-05-20 11:47:38 24 18.40 0.120000 41.649648 41.62752893 0 0 0 0 0 0 0 0 STD5.60
2026-05-20 11:42:36 11 17.00 0.055000 41.649648 41.62752893 0 0 0 0 0 0 0 0 STD5.60
2026-05-20 11:37:34 18 18.30 0.090000 41.649648 41.62752893 0 0 0 0 0 0 0 0 STD5.60
2026-05-20 11:32:32 14 13.20 0.070000 41.649648 41.62752893 0 0 0 0 0 0 0 0 STD5.60
2026-05-20 11:27:30 17 3.80 0.085000 41.649648 41.62752893 0 0 0 0 0 0 0 0 STD5.60
2026-05-20 11:22:26 18 16.20 0.090000 41.649648 41.62752893 0 0 0 0 0 0 0 0 STD5.60
2026-05-20 11:12:22 15 17.90 0.075000 41.649648 41.62752893 0 0 0 0 0 0 0 0 STD5.60
2026-05-20 11:07:20 16 17.50 0.080000 41.649648 41.62752893 0 0 0 0 0 0 0 0 STD5.60
2026-05-20 11:02:18 16 15.60 0.080000 41.649648 41.62752893 0 0 0 0 0 0 0 0 STD5.60
2026-05-20 10:57:16 14 16.40 0.070000 41.649648 41.62752893 0 0 0 0 0 0 0 0 STD5.60
2026-05-20 10:52:14 17 16.30 0.085000 41.649648 41.62752893 0 0 0 0 0 0 0 0 STD5.60
2026-05-20 10:47:12 7 17.00 0.035000 41.649648 41.62752893 0 0 0 0 0 0 0 0 STD5.60
2026-05-20 10:42:10 17 19.10 0.085000 41.649648 41.62752893 0 0 0 0 0 0 0 0 STD5.60
2026-05-20 10:37:08 19 19.30 0.095000 41.649648 41.62752893 0 0 0 0 0 0 0 0 STD5.60
2026-05-20 10:32:06 12 18.30 0.060000 41.649648 41.62752893 0 0 0 0 0 0 0 0 STD5.60
2026-05-20 10:27:04 15 18.70 0.075000 41.649648 41.62752893 0 0 0 0 0 0 0 0 STD5.60
2026-05-20 10:21:59 21 19.50 0.105000 41.649648 41.62752893 0 0 0 0 0 0 0 0 STD5.60
2026-05-20 10:16:57 15 18.50 0.075000 41.649648 41.62752893 0 0 0 0 0 0 0 0 STD5.60
2026-05-20 10:11:55 22 18.40 0.110000 41.649648 41.62752893 0 0 0 0 0 0 0 0 STD5.60
2026-05-20 10:06:53 20 18.10 0.100000 41.649648 41.62752893 0 0 0 0 0 0 0 0 STD5.60
2026-05-20 10:01:51 14 15.70 0.070000 41.649648 41.62752893 0 0 0 0 0 0 0 0 STD5.60
2026-05-20 09:56:49 12 16.20 0.060000 41.649648 41.62752893 0 0 0 0 0 0 0 0 STD5.60
2026-05-20 09:51:46 18 19.30 0.090000 41.649648 41.62752893 0 0 0 0 0 0 0 0 STD5.60
2026-05-20 09:46:44 19 20.20 0.095000 41.649648 41.62752893 0 0 0 0 0 0 0 0 STD5.60
2026-05-20 09:41:42 21 17.70 0.105000 41.649648 41.62752893 0 0 0 0 0 0 0 0 STD5.60
2026-05-20 09:36:40 13 17.00 0.065000 41.649648 41.62752893 0 0 0 0 0 0 0 0 STD5.60
2026-05-20 09:31:39 16 18.20 0.080000 41.649648 41.62752893 0 0 0 0 0 0 0 0 STD5.60
2026-05-20 09:26:36 13 20.20 0.065000 41.649648 41.62752893 0 0 0 0 0 0 0 0 STD5.60
2026-05-20 09:21:33 18 18.80 0.090000 41.649648 41.62752893 0 0 0 0 0 0 0 0 STD5.60
2026-05-20 09:16:30 26 15.60 0.130000 41.649648 41.62752893 0 0 0 0 0 0 0 0 STD5.60
2026-05-20 09:11:28 20 16.90 0.100000 41.649648 41.62752893 0 0 0 0 0 0 0 0 STD5.60
2026-05-20 09:06:26 20 19.40 0.100000 41.649648 41.62752893 0 0 0 0 0 0 0 0 STD5.60
2026-05-20 09:01:25 22 19.20 0.110000 41.649648 41.62752893 0 0 0 0 0 0 0 0 STD5.60
2026-05-20 08:56:23 17 19.00 0.085000 41.649648 41.62752893 0 0 0 0 0 0 0 0 STD5.60
2026-05-20 08:51:20 19 18.60 0.095000 41.649648 41.62752893 0 0 0 0 0 0 0 0 STD5.60
2026-05-20 08:46:18 18 18.00 0.090000 41.649648 41.62752893 0 0 0 0 0 0 0 0 STD5.60
2026-05-20 08:41:16 15 18.00 0.075000 41.649648 41.62752893 0 0 0 0 0 0 0 0 STD5.60
2026-05-20 08:36:14 20 19.00 0.100000 41.649648 41.62752893 0 0 0 0 0 0 0 0 STD5.60
2026-05-20 08:31:12 20 19.20 0.100000 41.649648 41.62752893 0 0 0 0 0 0 0 0 STD5.60
2026-05-20 08:26:10 19 18.60 0.095000 41.649648 41.62752893 0 0 0 0 0 0 0 0 STD5.60
2026-05-20 08:21:07 11 18.10 0.055000 41.649648 41.62752893 0 0 0 0 0 0 0 0 STD5.60
2026-05-20 08:16:04 19 17.30 0.095000 41.649648 41.62752893 0 0 0 0 0 0 0 0 STD5.60
2026-05-20 08:11:02 14 16.10 0.070000 41.649648 41.62752893 0 0 0 0 0 0 0 0 STD5.60
2026-05-20 08:06:00 15 16.70 0.075000 41.649648 41.62752893 0 0 0 0 0 0 0 0 STD5.60
2026-05-20 08:00:59 20 19.40 0.100000 41.649648 41.62752893 0 0 0 0 0 0 0 0 STD5.60
2026-05-20 07:55:56 21 19.00 0.105000 41.649648 41.62752893 0 0 0 0 0 0 0 0 STD5.60
2026-05-20 07:50:54 19 17.70 0.095000 41.649648 41.62752893 0 0 0 0 0 0 0 0 STD5.60
2026-05-20 07:45:52 18 18.40 0.090000 41.649648 41.62752893 0 0 0 0 0 0 0 0 STD5.60
2026-05-20 07:40:49 26 18.80 0.130000 41.649648 41.62752893 0 0 0 0 0 0 0 0 STD5.60
2026-05-20 07:35:48 18 20.10 0.090000 41.649648 41.62752893 0 0 0 0 0 0 0 0 STD5.60
2026-05-20 07:30:45 23 20.50 0.115000 41.649648 41.62752893 0 0 0 0 0 0 0 0 STD5.60
2026-05-20 07:25:44 15 17.30 0.075000 41.649648 41.62752893 0 0 0 0 0 0 0 0 STD5.60
2026-05-20 07:20:39 18 17.50 0.090000 41.649648 41.62752893 0 0 0 0 0 0 0 0 STD5.60
2026-05-20 07:15:37 21 19.80 0.105000 41.649648 41.62752893 0 0 0 0 0 0 0 0 STD5.60
2026-05-20 07:10:35 25 19.10 0.125000 41.649648 41.62752893 0 0 0 0 0 0 0 0 STD5.60
2026-05-20 07:05:33 12 18.60 0.060000 41.649648 41.62752893 0 0 0 0 0 0 0 0 STD5.60
2026-05-20 07:00:31 13 17.90 0.065000 41.649648 41.62752893 0 0 0 0 0 0 0 0 STD5.60
2026-05-20 06:55:29 14 17.80 0.070000 41.649648 41.62752893 0 0 0 0 0 0 0 0 STD5.60
2026-05-20 06:50:26 20 16.80 0.100000 41.649648 41.62752893 0 0 0 0 0 0 0 0 STD5.60
2026-05-20 06:45:24 10 18.20 0.050000 41.649648 41.62752893 0 0 0 0 0 0 0 0 STD5.60
2026-05-20 06:40:22 22 18.90 0.110000 41.649648 41.62752893 0 0 0 0 0 0 0 0 STD5.60
2026-05-20 06:35:20 10 16.90 0.050000 41.649648 41.62752893 0 0 0 0 0 0 0 0 STD5.60
2026-05-20 06:30:18 23 17.30 0.115000 41.649648 41.62752893 0 0 0 0 0 0 0 0 STD5.60
2026-05-20 06:25:16 23 16.90 0.115000 41.649648 41.62752893 0 0 0 0 0 0 0 0 STD5.60
2026-05-20 06:20:12 14 16.60 0.070000 41.649648 41.62752893 0 0 0 0 0 0 0 0 STD5.60
2026-05-20 06:15:10 17 15.70 0.085000 41.649648 41.62752893 0 0 0 0 0 0 0 0 STD5.60
2026-05-20 06:10:08 14 16.90 0.070000 41.649648 41.62752893 0 0 0 0 0 0 0 0 STD5.60
2026-05-20 06:05:06 17 17.50 0.085000 41.649648 41.62752893 0 0 0 0 0 0 0 0 STD5.60
2026-05-20 06:00:11 17 16.20 0.085000 41.649648 41.62752893 0 0 0 0 0 0 0 0 STD5.60
2026-05-20 05:55:02 22 17.40 0.110000 41.649648 41.62752893 0 0 0 0 0 0 0 0 STD5.60
2026-05-20 05:50:00 17 18.90 0.085000 41.649648 41.62752893 0 0 0 0 0 0 0 0 STD5.60
2026-05-20 05:44:58 16 17.60 0.080000 41.649648 41.62752893 0 0 0 0 0 0 0 0 STD5.60
2026-05-20 05:39:56 22 15.30 0.110000 41.649648 41.62752893 0 0 0 0 0 0 0 0 STD5.60
2026-05-20 05:34:54 12 17.70 0.060000 41.649648 41.62752893 0 0 0 0 0 0 0 0 STD5.60
2026-05-20 05:29:52 22 19.40 0.110000 41.649648 41.62752893 0 0 0 0 0 0 0 0 STD5.60
2026-05-20 05:24:50 15 19.80 0.075000 41.649648 41.62752893 0 0 0 0 0 0 0 0 STD5.60
2026-05-20 05:19:31 26 18.80 0.130000 41.649648 41.62752893 0 0 0 0 0 0 0 0 STD5.60
2026-05-20 05:14:29 17 16.50 0.085000 41.649648 41.62752893 0 0 0 0 0 0 0 0 STD5.60
2026-05-20 05:09:27 16 18.70 0.080000 41.649648 41.62752893 0 0 0 0 0 0 0 0 STD5.60
2026-05-20 05:04:25 23 18.50 0.115000 41.649648 41.62752893 0 0 0 0 0 0 0 0 STD5.60
2026-05-20 04:59:23 17 16.10 0.085000 41.649648 41.62752893 0 0 0 0 0 0 0 0 STD5.60
2026-05-20 04:54:21 18 16.80 0.090000 41.649648 41.62752893 0 0 0 0 0 0 0 0 STD5.60
2026-05-20 04:49:18 16 16.70 0.080000 41.649648 41.62752893 0 0 0 0 0 0 0 0 STD5.60
2026-05-20 04:44:16 16 16.30 0.080000 41.649648 41.62752893 0 0 0 0 0 0 0 0 STD5.60
2026-05-20 04:39:14 13 16.20 0.065000 41.649648 41.62752893 0 0 0 0 0 0 0 0 STD5.60
2026-05-20 04:34:12 13 18.40 0.065000 41.649648 41.62752893 0 0 0 0 0 0 0 0 STD5.60
2026-05-20 04:29:10 18 18.80 0.090000 41.649648 41.62752893 0 0 0 0 0 0 0 0 STD5.60
2026-05-20 04:24:08 20 17.00 0.100000 41.649648 41.62752893 0 0 0 0 0 0 0 0 STD5.60
2026-05-20 04:19:02 22 20.70 0.110000 41.649648 41.62752893 0 0 0 0 0 0 0 0 STD5.60
2026-05-20 04:14:00 26 21.30 0.130000 41.649648 41.62752893 0 0 0 0 0 0 0 0 STD5.60
2026-05-20 04:08:58 19 18.40 0.095000 41.649648 41.62752893 0 0 0 0 0 0 0 0 STD5.60
2026-05-20 04:03:56 23 17.30 0.115000 41.649648 41.62752893 0 0 0 0 0 0 0 0 STD5.60
2026-05-20 03:58:54 16 17.10 0.080000 41.649648 41.62752893 0 0 0 0 0 0 0 0 STD5.60
2026-05-20 03:53:52 16 19.10 0.080000 41.649648 41.62752893 0 0 0 0 0 0 0 0 STD5.60
2026-05-20 03:48:50 23 19.20 0.115000 41.649648 41.62752893 0 0 0 0 0 0 0 0 STD5.60
2026-05-20 03:43:48 27 18.50 0.135000 41.649648 41.62752893 0 0 0 0 0 0 0 0 STD5.60
2026-05-20 03:38:46 19 19.90 0.095000 41.649648 41.62752893 0 0 0 0 0 0 0 0 STD5.60
2026-05-20 03:33:44 29 18.10 0.145000 41.649648 41.62752893 0 0 0 0 0 0 0 0 STD5.60
2026-05-20 03:28:42 16 17.90 0.080000 41.649648 41.62752893 0 0 0 0 0 0 0 0 STD5.60
2026-05-20 03:23:40 18 18.00 0.090000 41.649648 41.62752893 0 0 0 0 0 0 0 0 STD5.60
2026-05-20 03:18:35 15 16.30 0.075000 41.649648 41.62752893 0 0 0 0 0 0 0 0 STD5.60
2026-05-20 03:13:33 16 17.30 0.080000 41.649648 41.62752893 0 0 0 0 0 0 0 0 STD5.60
2026-05-20 03:08:31 14 18.10 0.070000 41.649648 41.62752893 0 0 0 0 0 0 0 0 STD5.60
2026-05-20 03:03:28 18 17.50 0.090000 41.649648 41.62752893 0 0 0 0 0 0 0 0 STD5.60
2026-05-20 02:58:26 21 15.80 0.105000 41.649648 41.62752893 0 0 0 0 0 0 0 0 STD5.60
2026-05-20 02:53:25 12 16.60 0.060000 41.649648 41.62752893 0 0 0 0 0 0 0 0 STD5.60
2026-05-20 02:48:23 23 17.40 0.115000 41.649648 41.62752893 0 0 0 0 0 0 0 0 STD5.60
2026-05-20 02:43:21 16 17.90 0.080000 41.649648 41.62752893 0 0 0 0 0 0 0 0 STD5.60
2026-05-20 02:38:18 20 19.90 0.100000 41.649648 41.62752893 0 0 0 0 0 0 0 0 STD5.60
2026-05-20 02:33:16 19 19.10 0.095000 41.649648 41.62752893 0 0 0 0 0 0 0 0 STD5.60
2026-05-20 02:28:14 23 17.90 0.115000 41.649648 41.62752893 0 0 0 0 0 0 0 0 STD5.60
2026-05-20 02:23:12 17 16.70 0.085000 41.649648 41.62752893 0 0 0 0 0 0 0 0 STD5.60
2026-05-20 02:18:08 17 18.50 0.085000 41.649648 41.62752893 0 0 0 0 0 0 0 0 STD5.60
2026-05-20 02:13:06 27 22.20 0.135000 41.649648 41.62752893 0 0 0 0 0 0 0 0 STD5.60
2026-05-20 02:08:04 24 22.60 0.120000 41.649648 41.62752893 0 0 0 0 0 0 0 0 STD5.60
2026-05-20 02:03:02 18 18.20 0.090000 41.649648 41.62752893 0 0 0 0 0 0 0 0 STD5.60
2026-05-20 01:58:01 13 16.30 0.065000 41.649648 41.62752893 0 0 0 0 0 0 0 0 STD5.60
2026-05-20 01:52:59 17 18.80 0.085000 41.649648 41.62752893 0 0 0 0 0 0 0 0 STD5.60
2026-05-20 01:47:56 24 18.40 0.120000 41.649648 41.62752893 0 0 0 0 0 0 0 0 STD5.60
2026-05-20 01:42:54 17 16.70 0.085000 41.649648 41.62752893 0 0 0 0 0 0 0 0 STD5.60
2026-05-20 01:37:52 19 16.60 0.095000 41.649648 41.62752893 0 0 0 0 0 0 0 0 STD5.60
2026-05-20 01:32:50 11 16.90 0.055000 41.649648 41.62752893 0 0 0 0 0 0 0 0 STD5.60
2026-05-20 01:27:48 20 15.90 0.100000 41.649648 41.62752893 0 0 0 0 0 0 0 0 STD5.60
2026-05-20 01:22:46 12 15.50 0.060000 41.649648 41.62752893 0 0 0 0 0 0 0 0 STD5.60
2026-05-20 01:17:42 21 16.20 0.105000 41.649648 41.62752893 0 0 0 0 0 0 0 0 STD5.60
2026-05-20 01:12:40 15 16.90 0.075000 41.649648 41.62752893 0 0 0 0 0 0 0 0 STD5.60
2026-05-20 01:07:38 15 17.20 0.075000 41.649648 41.62752893 0 0 0 0 0 0 0 0 STD5.60
2026-05-20 01:02:36 14 19.70 0.070000 41.649648 41.62752893 0 0 0 0 0 0 0 0 STD5.60
2026-05-20 00:57:34 23 18.60 0.115000 41.649648 41.62752893 0 0 0 0 0 0 0 0 STD5.60
2026-05-20 00:52:32 16 16.70 0.080000 41.649648 41.62752893 0 0 0 0 0 0 0 0 STD5.60
2026-05-20 00:47:30 23 18.20 0.115000 41.649648 41.62752893 0 0 0 0 0 0 0 0 STD5.60
2026-05-20 00:42:28 13 17.70 0.065000 41.649648 41.62752893 0 0 0 0 0 0 0 0 STD5.60
2026-05-20 00:37:26 16 17.40 0.080000 41.649648 41.62752893 0 0 0 0 0 0 0 0 STD5.60
2026-05-20 00:32:24 18 17.10 0.090000 41.649648 41.62752893 0 0 0 0 0 0 0 0 STD5.60
2026-05-20 00:27:22 18 16.10 0.090000 41.649648 41.62752893 0 0 0 0 0 0 0 0 STD5.60
2026-05-20 00:22:18 10 17.70 0.050000 41.649648 41.62752893 0 0 0 0 0 0 0 0 STD5.60
2026-05-20 00:17:05 17 18.40 0.085000 41.649648 41.62752893 0 0 0 0 0 0 0 0 STD5.60
2026-05-20 00:12:03 17 18.00 0.085000 41.649648 41.62752893 0 0 0 0 0 0 0 0 STD5.60
2026-05-20 00:07:01 20 18.80 0.100000 41.649648 41.62752893 0 0 0 0 0 0 0 0 STD5.60
2026-05-20 00:01:59 21 17.60 0.105000 41.649648 41.62752893 0 0 0 0 0 0 0 0 STD5.60
2026-05-19 23:56:57 15 17.50 0.075000 41.649648 41.62752893 0 0 0 0 0 0 0 0 STD5.60
2026-05-19 23:51:55 25 19.50 0.125000 41.649648 41.62752893 0 0 0 0 0 0 0 0 STD5.60
2026-05-19 23:46:53 21 18.90 0.105000 41.649648 41.62752893 0 0 0 0 0 0 0 0 STD5.60
2026-05-19 23:41:51 18 18.50 0.090000 41.649648 41.62752893 0 0 0 0 0 0 0 0 STD5.60
2026-05-19 23:36:48 21 18.60 0.105000 41.649648 41.62752893 0 0 0 0 0 0 0 0 STD5.60
2026-05-19 23:31:47 17 18.10 0.085000 41.649648 41.62752893 0 0 0 0 0 0 0 0 STD5.60
2026-05-19 23:26:45 22 18.00 0.110000 41.649648 41.62752893 0 0 0 0 0 0 0 0 STD5.60
2026-05-19 23:21:43 23 15.90 0.115000 41.649648 41.62752893 0 0 0 0 0 0 0 0 STD5.60
2026-05-19 23:16:38 11 16.30 0.055000 41.649648 41.62752893 0 0 0 0 0 0 0 0 STD5.60
2026-05-19 23:11:36 16 16.40 0.080000 41.649648 41.62752893 0 0 0 0 0 0 0 0 STD5.60
2026-05-19 23:06:34 16 17.10 0.080000 41.649648 41.62752893 0 0 0 0 0 0 0 0 STD5.60
2026-05-19 23:01:32 27 20.40 0.135000 41.649648 41.62752893 0 0 0 0 0 0 0 0 STD5.60
2026-05-19 22:56:30 22 19.60 0.110000 41.649648 41.62752893 0 0 0 0 0 0 0 0 STD5.60
2026-05-19 22:51:29 16 15.00 0.080000 41.649648 41.62752893 0 0 0 0 0 0 0 0 STD5.60
2026-05-19 22:46:26 16 15.00 0.080000 41.649648 41.62752893 0 0 0 0 0 0 0 0 STD5.60
2026-05-19 22:41:24 18 17.90 0.090000 41.649648 41.62752893 0 0 0 0 0 0 0 0 STD5.60
2026-05-19 22:36:22 17 17.60 0.085000 41.649648 41.62752893 0 0 0 0 0 0 0 0 STD5.60
2026-05-19 22:31:20 18 18.00 0.090000 41.649648 41.62752893 0 0 0 0 0 0 0 0 STD5.60
2026-05-19 22:26:18 22 18.90 0.110000 41.649648 41.62752893 0 0 0 0 0 0 0 0 STD5.60
2026-05-19 22:21:14 17 18.50 0.085000 41.649648 41.62752893 0 0 0 0 0 0 0 0 STD5.60
2026-05-19 22:16:12 21 18.80 0.105000 41.649648 41.62752893 0 0 0 0 0 0 0 0 STD5.60
2026-05-19 22:11:10 18 19.00 0.090000 41.649648 41.62752893 0 0 0 0 0 0 0 0 STD5.60
2026-05-19 22:06:08 11 19.10 0.055000 41.649648 41.62752893 0 0 0 0 0 0 0 0 STD5.60
2026-05-19 22:01:06 18 19.00 0.090000 41.649648 41.62752893 0 0 0 0 0 0 0 0 STD5.60
2026-05-19 21:56:04 29 19.40 0.145000 41.649648 41.62752893 0 0 0 0 0 0 0 0 STD5.60
2026-05-19 21:51:02 21 19.40 0.105000 41.649648 41.62752893 0 0 0 0 0 0 0 0 STD5.60
2026-05-19 21:46:00 14 20.60 0.070000 41.649648 41.62752893 0 0 0 0 0 0 0 0 STD5.60
2026-05-19 21:40:58 22 19.10 0.110000 41.649648 41.62752893 0 0 0 0 0 0 0 0 STD5.60
2026-05-19 21:35:56 12 16.50 0.060000 41.649648 41.62752893 0 0 0 0 0 0 0 0 STD5.60
2026-05-19 21:30:54 14 16.30 0.070000 41.649648 41.62752893 0 0 0 0 0 0 0 0 STD5.60
2026-05-19 21:25:52 14 16.20 0.070000 41.649648 41.62752893 0 0 0 0 0 0 0 0 STD5.60
2026-05-19 21:20:48 20 17.20 0.100000 41.649648 41.62752893 0 0 0 0 0 0 0 0 STD5.60
2026-05-19 21:15:46 10 17.70 0.050000 41.649648 41.62752893 0 0 0 0 0 0 0 0 STD5.60
2026-05-19 21:10:44 17 16.70 0.085000 41.649648 41.62752893 0 0 0 0 0 0 0 0 STD5.60
2026-05-19 21:05:42 21 16.40 0.105000 41.649648 41.62752893 0 0 0 0 0 0 0 0 STD5.60
2026-05-19 21:00:40 19 16.70 0.095000 41.649648 41.62752893 0 0 0 0 0 0 0 0 STD5.60
2026-05-19 20:55:38 26 16.80 0.130000 41.649648 41.62752893 0 0 0 0 0 0 0 0 STD5.60
2026-05-19 20:50:36 15 17.00 0.075000 41.649648 41.62752893 0 0 0 0 0 0 0 0 STD5.60
2026-05-19 20:45:33 19 17.30 0.095000 41.649648 41.62752893 0 0 0 0 0 0 0 0 STD5.60
2026-05-19 20:40:31 17 17.50 0.085000 41.649648 41.62752893 0 0 0 0 0 0 0 0 STD5.60
2026-05-19 20:35:29 12 18.70 0.060000 41.649648 41.62752893 0 0 0 0 0 0 0 0 STD5.60
2026-05-19 20:30:27 14 18.90 0.070000 41.649648 41.62752893 0 0 0 0 0 0 0 0 STD5.60
2026-05-19 20:25:25 22 17.70 0.110000 41.649648 41.62752893 0 0 0 0 0 0 0 0 STD5.60
2026-05-19 20:20:22 20 18.00 0.100000 41.649648 41.62752893 0 0 0 0 0 0 0 0 STD5.60
2026-05-19 20:15:19 15 17.60 0.075000 41.649648 41.62752893 0 0 0 0 0 0 0 0 STD5.60
2026-05-19 20:10:17 23 18.50 0.115000 41.649648 41.62752893 0 0 0 0 0 0 0 0 STD5.60
2026-05-19 20:05:15 13 19.40 0.065000 41.649648 41.62752893 0 0 0 0 0 0 0 0 STD5.60
2026-05-19 20:00:13 29 18.40 0.145000 41.649648 41.62752893 0 0 0 0 0 0 0 0 STD5.60
2026-05-19 19:55:11 19 17.10 0.095000 41.649648 41.62752893 0 0 0 0 0 0 0 0 STD5.60
2026-05-19 19:50:10 15 16.60 0.075000 41.649648 41.62752893 0 0 0 0 0 0 0 0 STD5.60
2026-05-19 19:45:10 20 17.40 0.100000 41.649648 41.62752893 0 0 0 0 0 0 0 0 STD5.60
2026-05-19 19:40:05 21 18.00 0.105000 41.649648 41.62752893 0 0 0 0 0 0 0 0 STD5.60
2026-05-19 19:35:03 17 18.30 0.085000 41.649648 41.62752893 0 0 0 0 0 0 0 0 STD5.60
2026-05-19 19:30:01 19 18.30 0.095000 41.649648 41.62752893 0 0 0 0 0 0 0 0 STD5.60
2026-05-19 19:24:59 19 18.40 0.095000 41.649648 41.62752893 0 0 0 0 0 0 0 0 STD5.60
Geiger Counter World Map       A real time radiation map.     Copyright 2015 All rights reserved.